Time;durP1;ratioP1;P1;durP2;ratioP2;P2;SDS_P1;SDS_P2;PMS_P1;PMS_P2;Temp;Humidity;BMP_temperature;BMP_pressure;BME280_temperature;BME280_humidity;BME280_pressure;Samples;Min_cycle;Max_cycle;Signal;HPM_P1;HPM_P2
2022/11/07 00:00:10;;;;;;;25.20;11.85;;;;;;;;;;6300348;22;20027;-61
2022/11/07 00:02:44;;;;;;;24.80;10.85;;;;;;;;;;6300869;22;20022;-61
2022/11/07 00:05:12;;;;;;;21.83;11.18;;;;;;;;;;6299863;22;20077;-55
2022/11/07 00:07:45;;;;;;;29.92;11.77;;;;;;;;;;6298471;22;20023;-53
2022/11/07 00:10:13;;;;;;;22.05;10.80;;;;;;;;;;6299178;22;20019;-51
2022/11/07 00:12:40;;;;;;;26.92;11.95;;;;;;;;;;6300248;22;20029;-51
2022/11/07 00:15:14;;;;;;;26.75;10.68;;;;;;;;;;6275323;22;20050;-54
2022/11/07 00:17:41;;;;;;;29.38;11.32;;;;;;;;;;6298280;22;20023;-54
2022/11/07 00:20:08;;;;;;;26.77;10.95;;;;;;;;;;6300298;22;20098;-49
2022/11/07 00:22:42;;;;;;;26.17;11.93;;;;;;;;;;6300305;22;20019;-59
2022/11/07 00:25:09;;;;;;;30.50;11.80;;;;;;;;;;6299302;22;20114;-59
2022/11/07 00:27:43;;;;;;;22.85;10.18;;;;;;;;;;6300356;22;20030;-59
2022/11/07 00:30:11;;;;;;;17.65;10.65;;;;;;;;;;6299835;22;20020;-59
2022/11/07 00:32:38;;;;;;;25.60;10.82;;;;;;;;;;6300981;22;20102;-59
2022/11/07 00:35:11;;;;;;;21.00;10.30;;;;;;;;;;6302485;22;20090;-59
2022/11/07 00:37:38;;;;;;;28.17;9.20;;;;;;;;;;6302022;22;20102;-60
2022/11/07 00:40:12;;;;;;;18.80;9.32;;;;;;;;;;6302447;22;20094;-50
2022/11/07 00:42:40;;;;;;;19.92;9.20;;;;;;;;;;6301546;22;20676;-65
2022/11/07 00:45:07;;;;;;;26.50;9.02;;;;;;;;;;6302432;22;20477;-64
2022/11/07 00:47:41;;;;;;;18.92;9.10;;;;;;;;;;6301753;22;20058;-64
2022/11/07 00:50:09;;;;;;;19.85;9.02;;;;;;;;;;6274893;22;20027;-65
2022/11/07 00:52:42;;;;;;;20.92;8.65;;;;;;;;;;6300844;22;20015;-64
2022/11/07 00:55:10;;;;;;;20.67;8.15;;;;;;;;;;6302861;22;20102;-64
2022/11/07 00:57:37;;;;;;;17.58;8.48;;;;;;;;;;6301393;22;20379;-59
2022/11/07 01:00:17;;;;;;;19.90;8.95;;;;;;;;;;6301359;22;20542;-52
2022/11/07 01:05:09;;;;;;;22.17;8.55;;;;;;;;;;6301875;22;20118;-51
2022/11/07 01:05:54;;;;;;;16.42;7.78;;;;;;;;;;6302054;22;20532;-51
2022/11/07 01:08:21;;;;;;;15.80;7.78;;;;;;;;;;6301533;22;20460;-54
2022/11/07 01:10:56;;;;;;;19.73;8.35;;;;;;;;;;6300806;22;20483;-51
2022/11/07 01:13:23;;;;;;;;;;;;;;;;;;6301973;22;20054;-53
2022/11/07 01:15:50;;;;;;;19.10;7.57;;;;;;;;;;6302090;22;19925;-64
2022/11/07 01:18:24;;;;;;;21.13;8.48;;;;;;;;;;6301654;22;20026;-58
2022/11/07 01:20:52;;;;;;;26.25;8.30;;;;;;;;;;6300294;22;20041;-62
2022/11/07 01:23:25;;;;;;;21.02;8.40;;;;;;;;;;6300572;22;20019;-63
2022/11/07 01:25:52;;;;;;;24.98;7.85;;;;;;;;;;6301152;22;20019;-62
2022/11/07 01:28:20;;;;;;;18.75;7.85;;;;;;;;;;6302117;22;20029;-62
2022/11/07 01:30:53;;;;;;;18.92;7.53;;;;;;;;;;6301958;22;20846;-62
2022/11/07 01:33:20;;;;;;;22.95;7.95;;;;;;;;;;6302369;22;20019;-63
2022/11/07 01:35:54;;;;;;;18.73;8.55;;;;;;;;;;6301830;22;20020;-58
2022/11/07 01:38:22;;;;;;;26.20;8.63;;;;;;;;;;6301025;22;20029;-60
2022/11/07 01:43:44;;;;;;;25.02;8.48;;;;;;;;;;6301077;22;20023;-52
2022/11/07 01:46:12;;;;;;;29.35;7.40;;;;;;;;;;6301070;22;20643;-53
2022/11/07 01:49:06;;;;;;;14.82;7.25;;;;;;;;;;6299177;22;20019;-50
2022/11/07 01:51:36;;;;;;;19.13;7.18;;;;;;;;;;6301989;22;20090;-51
2022/11/07 01:54:12;;;;;;;19.95;7.07;;;;;;;;;;6301832;22;20098;-59
2022/11/07 01:56:45;;;;;;;17.05;7.10;;;;;;;;;;6300606;22;20101;-65
2022/11/07 01:59:28;;;;;;;21.55;7.20;;;;;;;;;;6300428;22;20019;-59
2022/11/07 02:02:03;;;;;;;17.08;7.00;;;;;;;;;;6300053;22;20098;-59
2022/11/07 02:04:37;;;;;;;20.15;7.18;;;;;;;;;;6300394;22;20023;-59
2022/11/07 02:07:07;;;;;;;17.10;6.70;;;;;;;;;;6300895;22;20020;-59
2022/11/07 02:09:35;;;;;;;14.32;6.25;;;;;;;;;;6301958;22;20055;-59
2022/11/07 02:12:08;;;;;;;12.32;6.47;;;;;;;;;;6301799;22;20329;-59
2022/11/07 02:14:35;;;;;;;19.25;6.63;;;;;;;;;;6300889;22;20090;-58
2022/11/07 02:17:10;;;;;;;14.70;6.43;;;;;;;;;;6300168;22;20027;-63
2022/11/07 02:19:42;;;;;;;23.40;8.20;;;;;;;;;;6299381;22;20465;-62
2022/11/07 02:22:35;;;;;;;15.55;7.00;;;;;;;;;;6302129;22;20019;-63
2022/11/07 02:25:04;;;;;;;18.48;6.20;;;;;;;;;;6301397;22;20110;-62
2022/11/07 02:27:39;;;;;;;21.52;6.28;;;;;;;;;;6301757;22;20476;-62
2022/11/07 02:30:09;;;;;;;20.67;6.50;;;;;;;;;;6301210;22;20029;-63
2022/11/07 02:32:37;;;;;;;13.73;6.43;;;;;;;;;;6301866;22;20437;-61
2022/11/07 02:35:29;;;;;;;17.10;5.90;;;;;;;;;;6301391;22;20023;-53
2022/11/07 02:37:56;;;;;;;23.52;6.80;;;;;;;;;;6300799;22;20020;-49
2022/11/07 02:40:30;;;;;;;17.23;6.32;;;;;;;;;;6302941;22;20029;-52
2022/11/07 02:42:57;;;;;;;;;;;;;;;;;;6302084;22;20102;-48
2022/11/07 02:45:32;;;;;;;16.70;6.18;;;;;;;;;;6300639;22;20256;-51
2022/11/07 02:47:59;;;;;;;17.10;5.97;;;;;;;;;;6301842;22;20563;-51
2022/11/07 02:50:33;;;;;;;16.85;5.90;;;;;;;;;;6301987;22;20054;-52
2022/11/07 02:53:01;;;;;;;17.88;6.05;;;;;;;;;;6300837;22;20030;-58
2022/11/07 02:55:35;;;;;;;21.83;6.30;;;;;;;;;;6300841;22;20404;-62
2022/11/07 02:58:02;;;;;;;16.92;5.85;;;;;;;;;;6299361;22;20027;-63
2022/11/07 03:00:29;;;;;;;13.55;5.72;;;;;;;;;;6300638;22;20023;-63
2022/11/07 03:03:02;;;;;;;18.33;6.03;;;;;;;;;;6299866;22;20029;-62
2022/11/07 03:05:29;;;;;;;19.08;6.05;;;;;;;;;;6300495;22;20023;-63
2022/11/07 03:08:04;;;;;;;15.23;5.43;;;;;;;;;;6301068;22;20033;-62
2022/11/07 03:10:31;;;;;;;16.48;5.15;;;;;;;;;;6299669;22;20102;-60
2022/11/07 03:12:58;;;;;;;13.32;6.03;;;;;;;;;;6298771;22;20027;-56
2022/11/07 03:15:31;;;;;;;15.35;5.30;;;;;;;;;;6300869;22;20021;-59
2022/11/07 03:17:59;;;;;;;14.02;5.85;;;;;;;;;;6301300;22;20531;-60
2022/11/07 03:20:32;;;;;;;13.43;6.03;;;;;;;;;;6300370;22;20022;-59
2022/11/07 03:23:00;;;;;;;16.00;5.10;;;;;;;;;;6300455;22;20058;-60
2022/11/07 03:25:27;;;;;;;18.05;6.13;;;;;;;;;;6300929;22;20015;-59
2022/11/07 03:28:00;;;;;;;14.98;5.97;;;;;;;;;;6298167;22;20015;-60
2022/11/07 03:30:28;;;;;;;12.35;5.68;;;;;;;;;;6297698;22;20130;-65
2022/11/07 03:33:01;;;;;;;15.68;4.97;;;;;;;;;;6301086;22;20029;-55
2022/11/07 03:35:28;;;;;;;13.90;5.40;;;;;;;;;;6301389;22;20019;-58
2022/11/07 03:37:56;;;;;;;21.45;5.57;;;;;;;;;;6300220;22;20098;-57
2022/11/07 03:40:29;;;;;;;18.35;5.88;;;;;;;;;;6300647;22;20023;-57
2022/11/07 03:42:57;;;;;;;16.10;5.15;;;;;;;;;;6299903;22;20015;-57
2022/11/07 03:45:24;;;;;;;13.85;4.65;;;;;;;;;;6300327;22;20023;-58
2022/11/07 03:47:57;;;;;;;17.17;6.07;;;;;;;;;;6301037;22;20030;-58
2022/11/07 03:50:25;;;;;;;14.38;5.35;;;;;;;;;;6300840;22;20015;-60
2022/11/07 03:52:58;;;;;;;16.90;5.55;;;;;;;;;;6299574;22;20428;-59
2022/11/07 03:55:26;;;;;;;16.40;4.57;;;;;;;;;;6300894;22;20069;-59
2022/11/07 03:57:53;;;;;;;10.60;5.35;;;;;;;;;;6300059;22;20713;-59
2022/11/07 04:00:33;;;;;;;15.57;5.75;;;;;;;;;;6299505;22;20025;-59
2022/11/07 04:03:07;;;;;;;13.93;5.18;;;;;;;;;;6300764;22;20098;-59
2022/11/07 04:05:42;;;;;;;14.63;4.82;;;;;;;;;;6299945;22;20023;-60
2022/11/07 04:08:09;;;;;;;12.68;5.22;;;;;;;;;;6300676;22;20045;-65
2022/11/07 04:10:36;;;;;;;15.93;5.38;;;;;;;;;;6300793;22;20465;-59
2022/11/07 04:18:49;;;;;;;13.35;5.88;;;;;;;;;;6300855;22;20031;-58
2022/11/07 04:21:16;;;;;;;15.10;4.78;;;;;;;;;;6299517;22;20090;-55
2022/11/07 04:23:50;;;;;;;10.07;4.40;;;;;;;;;;6300067;22;20023;-55
2022/11/07 04:29:11;;;;;;;9.68;4.47;;;;;;;;;;6299463;22;20062;-50
2022/11/07 04:31:38;;;;;;;9.70;4.25;;;;;;;;;;6300986;22;20494;-59
2022/11/07 04:34:05;;;;;;;16.20;4.90;;;;;;;;;;6300090;22;20034;-60
2022/11/07 04:36:38;;;;;;;16.20;4.90;;;;;;;;;;6298543;22;20025;-58
2022/11/07 04:39:06;;;;;;;11.48;4.45;;;;;;;;;;6300474;22;20019;-60
2022/11/07 04:41:39;;;;;;;12.80;4.15;;;;;;;;;;6300481;22;20033;-60
2022/11/07 04:44:07;;;;;;;11.77;4.05;;;;;;;;;;6300516;22;20023;-60
2022/11/07 04:46:34;;;;;;;15.38;5.55;;;;;;;;;;6301291;22;20049;-58
2022/11/07 04:49:07;;;;;;;9.60;4.70;;;;;;;;;;6300559;22;20127;-54
2022/11/07 04:51:40;;;;;;;13.32;4.93;;;;;;;;;;6299459;22;20152;-54
2022/11/07 04:54:14;;;;;;;11.30;4.28;;;;;;;;;;6297274;22;20098;-48
2022/11/07 04:56:42;;;;;;;19.70;4.70;;;;;;;;;;6299360;22;20026;-54
2022/11/07 04:59:09;;;;;;;10.05;4.90;;;;;;;;;;6300011;22;20027;-55
2022/11/07 05:01:51;;;;;;;12.15;4.50;;;;;;;;;;6300782;22;20019;-51
2022/11/07 05:04:19;;;;;;;10.70;4.72;;;;;;;;;;6301006;22;20393;-55
2022/11/07 05:06:52;;;;;;;7.70;3.80;;;;;;;;;;6300272;22;20023;-48
2022/11/07 05:09:20;;;;;;;11.73;4.03;;;;;;;;;;6301102;22;20114;-49
2022/11/07 05:11:50;;;;;;;11.55;4.00;;;;;;;;;;6300826;22;20020;-51
2022/11/07 05:14:23;;;;;;;6.25;3.45;;;;;;;;;;6300631;22;20491;-50
2022/11/07 05:16:52;;;;;;;9.02;3.03;;;;;;;;;;6301067;22;20094;-49
2022/11/07 05:19:26;;;;;;;10.38;4.05;;;;;;;;;;6299962;22;20023;-51
2022/11/07 05:24:46;;;;;;;8.73;3.65;;;;;;;;;;6300160;22;20022;-49
2022/11/07 05:27:17;;;;;;;10.02;3.60;;;;;;;;;;6300689;22;20031;-61
2022/11/07 05:29:45;;;;;;;12.25;3.25;;;;;;;;;;6300319;22;20127;-61
2022/11/07 05:32:19;;;;;;;6.32;3.25;;;;;;;;;;6298661;22;20027;-61
2022/11/07 05:34:46;;;;;;;9.55;3.22;;;;;;;;;;6299642;22;20536;-61
2022/11/07 05:37:20;;;;;;;9.90;4.47;;;;;;;;;;6299541;22;20027;-61
2022/11/07 05:39:47;;;;;;;6.95;3.10;;;;;;;;;;6302339;22;20019;-62
2022/11/07 05:42:20;;;;;;;8.55;3.33;;;;;;;;;;6302361;22;20019;-61
2022/11/07 05:44:54;;;;;;;7.68;3.63;;;;;;;;;;6301727;22;20015;-57
2022/11/07 05:47:28;;;;;;;6.95;2.95;;;;;;;;;;6300799;22;20426;-54
2022/11/07 05:50:02;;;;;;;7.03;3.00;;;;;;;;;;6299397;22;20343;-55
2022/11/07 05:52:36;;;;;;;6.38;3.00;;;;;;;;;;6298884;22;20029;-50
2022/11/07 05:55:04;;;;;;;;;;;;;;;;;;6297486;22;20448;-47
2022/11/07 05:57:31;;;;;;;5.38;2.20;;;;;;;;;;6297334;22;20255;-48
2022/11/07 06:00:12;;;;;;;13.32;3.25;;;;;;;;;;6299254;22;20476;-49
2022/11/07 06:02:39;;;;;;;8.10;2.90;;;;;;;;;;6299770;22;20023;-60
2022/11/07 06:05:14;;;;;;;6.78;2.75;;;;;;;;;;6301346;22;20025;-59
2022/11/07 06:07:41;;;;;;;7.47;2.70;;;;;;;;;;6302250;22;20019;-59
2022/11/07 06:10:08;;;;;;;12.48;3.30;;;;;;;;;;6302689;22;20019;-59
2022/11/07 06:12:42;;;;;;;7.28;2.90;;;;;;;;;;6300914;22;20041;-59
2022/11/07 06:15:10;;;;;;;6.20;2.92;;;;;;;;;;6302619;22;20025;-59
2022/11/07 06:17:43;;;;;;;10.05;3.10;;;;;;;;;;6301076;22;20061;-59
2022/11/07 06:20:11;;;;;;;6.88;2.47;;;;;;;;;;6300744;22;20030;-59
2022/11/07 06:22:38;;;;;;;8.77;3.15;;;;;;;;;;6303183;22;20023;-59
2022/11/07 06:25:11;;;;;;;4.55;2.67;;;;;;;;;;6302739;22;20021;-60
2022/11/07 06:27:45;;;;;;;5.35;2.75;;;;;;;;;;6300251;22;20464;-59
2022/11/07 06:30:13;;;;;;;6.40;2.88;;;;;;;;;;6302487;22;20023;-59
2022/11/07 06:32:44;;;;;;;5.38;2.67;;;;;;;;;;6302248;22;20019;-59
2022/11/07 06:35:17;;;;;;;7.03;2.72;;;;;;;;;;6302171;22;20682;-59
2022/11/07 06:37:45;;;;;;;5.85;2.72;;;;;;;;;;6301291;22;20106;-59
2022/11/07 06:40:22;;;;;;;6.05;2.60;;;;;;;;;;6302643;22;20423;-60
2022/11/07 06:42:49;;;;;;;7.65;2.30;;;;;;;;;;6301945;22;20107;-51
2022/11/07 06:45:16;;;;;;;6.05;2.88;;;;;;;;;;6302297;22;20102;-59
2022/11/07 06:47:50;;;;;;;5.45;2.40;;;;;;;;;;6302703;22;20038;-59
2022/11/07 06:50:23;;;;;;;4.00;2.15;;;;;;;;;;6300853;22;20098;-59
2022/11/07 06:53:00;;;;;;;5.05;2.30;;;;;;;;;;6300738;22;20027;-58
2022/11/07 06:55:27;;;;;;;3.22;2.00;;;;;;;;;;6302912;22;20019;-59
2022/11/07 06:57:59;;;;;;;5.10;2.38;;;;;;;;;;6301401;22;20023;-59
2022/11/07 07:00:40;;;;;;;5.63;1.85;;;;;;;;;;6300717;22;20019;-60
2022/11/07 07:03:21;;;;;;;3.00;1.75;;;;;;;;;;6301763;22;20050;-51
2022/11/07 07:05:48;;;;;;;2.55;1.70;;;;;;;;;;6300811;22;20023;-52
2022/11/07 07:08:22;;;;;;;3.00;1.55;;;;;;;;;;6302024;22;20094;-50
2022/11/07 07:10:50;;;;;;;3.70;1.92;;;;;;;;;;6300917;22;20094;-53
2022/11/07 07:13:17;;;;;;;3.28;1.60;;;;;;;;;;6301199;22;20023;-52
2022/11/07 07:15:54;;;;;;;1.73;1.50;;;;;;;;;;6301727;22;20544;-50
2022/11/07 07:18:22;;;;;;;1.65;1.30;;;;;;;;;;6302184;22;20084;-59
2022/11/07 07:21:08;;;;;;;3.50;1.52;;;;;;;;;;6301126;22;20019;-59
2022/11/07 07:23:37;;;;;;;2.67;1.27;;;;;;;;;;6302114;22;20098;-58
2022/11/07 07:26:15;;;;;;;1.85;1.20;;;;;;;;;;6302029;22;20093;-58
2022/11/07 07:28:43;;;;;;;3.28;1.35;;;;;;;;;;6301340;22;20019;-58
2022/11/07 07:31:10;;;;;;;2.38;1.58;;;;;;;;;;6302521;22;20023;-60
2022/11/07 07:33:44;;;;;;;3.25;1.10;;;;;;;;;;6301411;22;20338;-58
2022/11/07 07:36:12;;;;;;;1.50;1.10;;;;;;;;;;6301271;22;20484;-59
2022/11/07 07:38:47;;;;;;;1.30;1.20;;;;;;;;;;6302131;22;20065;-62
2022/11/07 07:41:14;;;;;;;1.77;1.27;;;;;;;;;;6301116;22;20099;-66
2022/11/07 07:43:41;;;;;;;5.28;1.60;;;;;;;;;;6274516;22;20098;-65
2022/11/07 07:46:19;;;;;;;2.40;1.42;;;;;;;;;;6300164;22;20019;-64
2022/11/07 07:48:46;;;;;;;4.28;1.38;;;;;;;;;;6300617;22;20025;-65
2022/11/07 07:51:20;;;;;;;2.08;1.35;;;;;;;;;;6302628;22;20042;-64
2022/11/07 07:53:48;;;;;;;2.75;1.50;;;;;;;;;;6301589;22;20098;-64
2022/11/07 07:56:16;;;;;;;6.22;2.28;;;;;;;;;;6299989;22;20531;-54
2022/11/07 07:58:50;;;;;;;7.82;2.67;;;;;;;;;;6300795;22;20415;-60
2022/11/07 08:01:23;;;;;;;17.13;3.28;;;;;;;;;;6300446;22;20325;-49
2022/11/07 08:03:57;;;;;;;10.68;4.35;;;;;;;;;;6274297;22;20057;-52
2022/11/07 08:06:28;;;;;;;13.50;3.47;;;;;;;;;;6301761;22;20019;-52
2022/11/07 08:08:56;;;;;;;23.13;5.05;;;;;;;;;;6299192;22;20023;-53
2022/11/07 08:11:29;;;;;;;21.83;4.70;;;;;;;;;;6301101;22;20410;-50
2022/11/07 08:13:57;;;;;;;21.58;5.50;;;;;;;;;;6301251;22;20348;-50
2022/11/07 08:16:27;;;;;;;19.60;5.32;;;;;;;;;;6300475;22;20456;-57
2022/11/07 08:19:02;;;;;;;21.05;5.47;;;;;;;;;;6299119;22;20027;-65
2022/11/07 08:21:29;;;;;;;22.95;6.20;;;;;;;;;;6301786;22;20093;-64
2022/11/07 08:23:56;;;;;;;31.88;6.03;;;;;;;;;;6300130;22;20029;-64
2022/11/07 08:26:30;;;;;;;29.35;6.68;;;;;;;;;;6300634;22;20030;-65
2022/11/07 08:28:57;;;;;;;24.48;5.57;;;;;;;;;;6301285;22;20102;-64
2022/11/07 08:31:31;;;;;;;21.08;6.60;;;;;;;;;;6299911;22;20019;-65
2022/11/07 08:33:58;;;;;;;26.42;6.53;;;;;;;;;;6298241;22;20027;-63
2022/11/07 08:36:25;;;;;;;;;;;;;;;;;;6302602;22;20098;-65
2022/11/07 08:39:00;;;;;;;33.80;5.95;;;;;;;;;;6299492;22;20336;-53
2022/11/07 08:41:27;;;;;;;26.50;5.70;;;;;;;;;;6300239;22;20102;-53
2022/11/07 08:43:54;;;;;;;31.50;5.90;;;;;;;;;;6299819;22;20023;-50
2022/11/07 08:46:27;;;;;;;30.20;6.28;;;;;;;;;;6301107;22;20029;-50
2022/11/07 08:48:55;;;;;;;24.00;4.57;;;;;;;;;;6299293;22;20106;-49
2022/11/07 08:51:28;;;;;;;26.45;5.32;;;;;;;;;;6300207;22;20019;-51
2022/11/07 08:53:56;;;;;;;34.17;5.72;;;;;;;;;;6302174;22;20097;-60
2022/11/07 08:56:23;;;;;;;22.90;5.15;;;;;;;;;;6303959;22;20069;-59
2022/11/07 08:58:57;;;;;;;25.92;5.00;;;;;;;;;;6302383;22;20027;-61
2022/11/07 09:01:30;;;;;;;22.80;4.90;;;;;;;;;;6302188;22;20098;-61
2022/11/07 09:04:25;;;;;;;27.92;5.13;;;;;;;;;;6302502;22;20372;-62
2022/11/07 09:06:52;;;;;;;21.58;5.00;;;;;;;;;;6299977;22;20023;-61
2022/11/07 09:09:27;;;;;;;25.75;4.82;;;;;;;;;;6302029;22;20099;-61
2022/11/07 09:11:54;;;;;;;30.10;4.80;;;;;;;;;;6303448;22;20023;-62
2022/11/07 09:14:21;;;;;;;26.45;4.72;;;;;;;;;;6302010;22;20130;-61
2022/11/07 09:16:55;;;;;;;26.25;4.35;;;;;;;;;;6302821;22;20093;-60
2022/11/07 09:19:22;;;;;;;24.98;4.78;;;;;;;;;;6301798;22;20033;-59
2022/11/07 09:21:56;;;;;;;22.52;4.40;;;;;;;;;;6303078;22;20019;-60
2022/11/07 09:24:23;;;;;;;;;;;;;;;;;;6302269;22;20071;-59
2022/11/07 09:26:50;;;;;;;26.83;5.10;;;;;;;;;;6302765;22;20399;-59
2022/11/07 09:29:24;;;;;;;29.27;4.60;;;;;;;;;;6302827;22;20019;-60
2022/11/07 09:31:51;;;;;;;27.55;4.03;;;;;;;;;;6302241;22;20102;-60
2022/11/07 09:34:38;;;;;;;35.95;4.95;;;;;;;;;;6304119;22;20025;-59
2022/11/07 09:37:05;;;;;;;;;;;;;;;;;;6300445;22;20094;-64
2022/11/07 09:39:39;;;;;;;24.50;4.55;;;;;;;;;;6302018;22;19918;-63
2022/11/07 09:42:12;;;;;;;24.98;4.00;;;;;;;;;;6302824;22;20019;-64
2022/11/07 09:44:40;;;;;;;20.75;3.28;;;;;;;;;;6302202;22;20062;-64
2022/11/07 09:47:13;;;;;;;23.10;3.63;;;;;;;;;;6302492;22;20027;-65
2022/11/07 09:49:49;;;;;;;17.95;3.10;;;;;;;;;;6302076;22;20019;-65
2022/11/07 09:52:36;;;;;;;20.17;3.53;;;;;;;;;;6301892;22;20109;-62
2022/11/07 09:55:22;;;;;;;21.67;3.13;;;;;;;;;;6300502;22;20054;-62
2022/11/07 09:57:52;;;;;;;22.35;3.47;;;;;;;;;;6302871;22;20015;-62
2022/11/07 10:00:39;;;;;;;21.48;3.50;;;;;;;;;;6302691;22;20110;-62
2022/11/07 10:03:13;;;;;;;19.47;3.40;;;;;;;;;;6302237;22;20086;-62
2022/11/07 10:05:54;;;;;;;19.55;2.58;;;;;;;;;;6301785;22;20244;-62
2022/11/07 10:08:39;;;;;;;16.23;2.88;;;;;;;;;;6301610;22;20050;-62
2022/11/07 10:11:20;;;;;;;21.33;3.45;;;;;;;;;;6304067;22;20102;-60
2022/11/07 10:13:47;;;;;;;18.55;3.08;;;;;;;;;;6301462;22;20047;-60
2022/11/07 10:16:32;;;;;;;21.63;3.70;;;;;;;;;;6301878;22;20029;-60
2022/11/07 10:19:15;;;;;;;25.48;3.88;;;;;;;;;;6301032;22;20502;-59
2022/11/07 10:21:52;;;;;;;16.70;3.00;;;;;;;;;;6300834;22;20058;-60
2022/11/07 10:24:37;;;;;;;11.07;2.65;;;;;;;;;;6301880;22;20025;-60
2022/11/07 10:27:11;;;;;;;12.25;2.58;;;;;;;;;;6301715;22;20488;-60
2022/11/07 10:29:43;;;;;;;16.75;2.22;;;;;;;;;;6301458;22;20058;-60
2022/11/07 10:32:18;;;;;;;6.53;1.70;;;;;;;;;;6301749;22;20045;-50
2022/11/07 10:34:51;;;;;;;13.45;1.90;;;;;;;;;;6300600;22;20030;-53
2022/11/07 10:37:25;;;;;;;7.97;1.80;;;;;;;;;;6302331;22;20098;-53
2022/11/07 10:39:52;;;;;;;11.30;2.00;;;;;;;;;;6300910;22;20594;-53
2022/11/07 10:42:20;;;;;;;8.13;1.67;;;;;;;;;;6301053;22;20532;-50
2022/11/07 10:44:54;;;;;;;7.15;1.70;;;;;;;;;;6302048;22;20348;-49
2022/11/07 10:47:23;;;;;;;7.75;1.67;;;;;;;;;;6301044;22;20019;-64
2022/11/07 10:49:58;;;;;;;14.15;1.67;;;;;;;;;;6301034;22;20031;-61
2022/11/07 10:52:26;;;;;;;11.10;2.35;;;;;;;;;;6302547;22;20115;-59
2022/11/07 10:55:05;;;;;;;12.60;1.83;;;;;;;;;;6299995;22;20397;-60
2022/11/07 10:57:34;;;;;;;13.30;2.30;;;;;;;;;;6300062;22;20030;-59
2022/11/07 11:00:40;;;;;;;10.13;1.80;;;;;;;;;;6301198;22;20106;-59
2022/11/07 11:03:24;;;;;;;9.93;2.00;;;;;;;;;;6302106;22;20094;-60
2022/11/07 11:06:19;;;;;;;13.63;1.77;;;;;;;;;;6301852;22;20015;-59
2022/11/07 11:08:52;;;;;;;7.30;1.48;;;;;;;;;;6273851;22;20491;-60
2022/11/07 11:11:29;;;;;;;10.77;1.60;;;;;;;;;;6301188;22;20055;-60
2022/11/07 11:14:02;;;;;;;5.55;1.65;;;;;;;;;;6301038;22;20334;-59
2022/11/07 11:16:38;;;;;;;9.63;1.90;;;;;;;;;;6300655;22;20027;-60
2022/11/07 11:19:35;;;;;;;9.40;1.95;;;;;;;;;;6301208;22;20369;-59
2022/11/07 11:22:10;;;;;;;7.25;1.50;;;;;;;;;;6300960;22;20034;-60
2022/11/07 11:24:43;;;;;;;9.25;1.60;;;;;;;;;;6299881;22;20356;-60
2022/11/07 11:27:15;;;;;;;13.23;1.80;;;;;;;;;;6273017;22;20403;-58
2022/11/07 11:29:47;;;;;;;10.50;1.48;;;;;;;;;;6301129;22;20082;-61
2022/11/07 11:32:47;;;;;;;8.73;1.98;;;;;;;;;;6275997;22;20019;-61
2022/11/07 11:35:20;;;;;;;10.68;1.90;;;;;;;;;;6300549;22;20019;-61
2022/11/07 11:37:51;;;;;;;13.32;2.08;;;;;;;;;;6301254;22;20023;-60
2022/11/07 11:40:20;;;;;;;9.57;1.50;;;;;;;;;;6300182;22;20033;-60
2022/11/07 11:43:18;;;;;;;16.15;2.30;;;;;;;;;;6301002;22;20019;-61
2022/11/07 11:45:53;;;;;;;16.50;2.17;;;;;;;;;;6281625;22;20102;-60
2022/11/07 11:48:45;;;;;;;15.90;2.28;;;;;;;;;;6300727;22;20061;-61
2022/11/07 11:51:19;;;;;;;14.57;2.20;;;;;;;;;;6301765;22;20541;-61
2022/11/07 11:53:53;;;;;;;10.40;1.80;;;;;;;;;;6300419;22;20102;-60
2022/11/07 11:56:34;;;;;;;14.90;1.98;;;;;;;;;;6299669;22;20527;-61
2022/11/07 11:59:29;;;;;;;12.73;2.42;;;;;;;;;;6300995;22;20090;-61
2022/11/07 12:02:10;;;;;;;13.60;2.13;;;;;;;;;;6300191;22;20023;-60
2022/11/07 12:04:51;;;;;;;15.07;1.92;;;;;;;;;;6300672;22;20027;-59
2022/11/07 12:07:18;;;;;;;10.43;2.60;;;;;;;;;;6301184;22;20026;-51
2022/11/07 12:10:05;;;;;;;14.70;2.25;;;;;;;;;;6299857;22;20236;-52
2022/11/07 12:12:45;;;;;;;12.82;2.25;;;;;;;;;;6300570;22;20019;-55
2022/11/07 12:15:18;;;;;;;7.40;2.35;;;;;;;;;;6275081;22;20098;-55
2022/11/07 12:18:08;;;;;;;12.88;2.38;;;;;;;;;;6299692;22;20490;-49
2022/11/07 12:20:58;;;;;;;11.52;2.25;;;;;;;;;;6289586;22;20033;-48
2022/11/07 12:23:36;;;;;;;13.10;2.35;;;;;;;;;;6301421;22;20059;-59
2022/11/07 12:26:39;;;;;;;19.08;2.70;;;;;;;;;;6300747;22;20356;-60
2022/11/07 12:29:23;;;;;;;12.57;2.53;;;;;;;;;;6268847;22;20499;-59
2022/11/07 12:32:15;;;;;;;9.07;2.00;;;;;;;;;;6300464;22;20470;-59
2022/11/07 12:35:15;;;;;;;12.75;2.08;;;;;;;;;;6299193;22;20387;-59
2022/11/07 12:37:51;;;;;;;17.48;2.15;;;;;;;;;;6223992;22;20090;-59
2022/11/07 12:40:37;;;;;;;14.40;2.28;;;;;;;;;;6301273;22;20037;-59
2022/11/07 12:43:11;;;;;;;6.75;2.00;;;;;;;;;;6300501;22;20094;-59
2022/11/07 12:46:02;;;;;;;10.18;2.50;;;;;;;;;;6300464;22;20025;-59
2022/11/07 12:48:54;;;;;;;7.05;2.00;;;;;;;;;;6300130;22;20022;-59
2022/11/07 12:51:38;;;;;;;14.88;2.45;;;;;;;;;;6298822;22;20019;-59
2022/11/07 12:54:19;;;;;;;8.50;2.00;;;;;;;;;;6300137;22;20110;-58
2022/11/07 12:56:48;;;;;;;14.57;2.13;;;;;;;;;;6273015;22;20016;-59
2022/11/07 12:59:25;;;;;;;19.33;2.50;;;;;;;;;;6300599;22;20073;-59
2022/11/07 13:02:07;;;;;;;7.15;1.83;;;;;;;;;;6299698;22;20027;-48
2022/11/07 13:04:52;;;;;;;15.38;2.50;;;;;;;;;;6299935;22;20020;-51
2022/11/07 13:07:29;;;;;;;10.95;2.00;;;;;;;;;;6298889;22;20023;-48
2022/11/07 13:10:21;;;;;;;10.88;2.03;;;;;;;;;;6300451;22;20023;-51
2022/11/07 13:12:51;;;;;;;10.88;2.00;;;;;;;;;;6300221;22;20051;-50
2022/11/07 13:15:26;;;;;;;12.20;2.30;;;;;;;;;;6299120;22;20023;-52
2022/11/07 13:17:53;;;;;;;13.45;2.33;;;;;;;;;;6300883;22;20016;-49
2022/11/07 13:20:28;;;;;;;8.82;2.00;;;;;;;;;;6301102;22;20023;-60
2022/11/07 13:22:57;;;;;;;9.35;2.00;;;;;;;;;;6299670;22;20090;-59
2022/11/07 13:25:31;;;;;;;11.48;2.00;;;;;;;;;;6300725;22;20045;-65
2022/11/07 13:28:00;;;;;;;10.98;2.15;;;;;;;;;;6301472;22;20019;-64
2022/11/07 13:30:35;;;;;;;11.32;2.10;;;;;;;;;;6299857;22;20503;-64
2022/11/07 13:33:03;;;;;;;6.95;1.95;;;;;;;;;;6300958;22;20019;-64
2022/11/07 13:35:37;;;;;;;11.05;2.22;;;;;;;;;;6299820;22;20556;-64
2022/11/07 13:38:11;;;;;;;7.95;2.10;;;;;;;;;;6299077;22;20130;-64
2022/11/07 13:40:49;;;;;;;8.70;2.65;;;;;;;;;;6301819;22;20023;-62
2022/11/07 13:43:35;;;;;;;8.88;2.15;;;;;;;;;;6301771;22;20042;-60
2022/11/07 13:46:16;;;;;;;12.35;2.25;;;;;;;;;;6302768;22;20086;-60
2022/11/07 13:48:52;;;;;;;10.98;2.40;;;;;;;;;;6302119;22;20098;-60
2022/11/07 13:51:30;;;;;;;9.07;2.00;;;;;;;;;;6301484;22;20023;-60
2022/11/07 13:54:04;;;;;;;12.57;2.42;;;;;;;;;;6300552;22;20025;-60
2022/11/07 13:56:50;;;;;;;9.98;2.22;;;;;;;;;;6302810;22;20102;-60
2022/11/07 13:59:33;;;;;;;15.35;2.78;;;;;;;;;;6303327;22;20045;-62
2022/11/07 14:02:27;;;;;;;11.98;2.30;;;;;;;;;;6301614;22;20019;-65
2022/11/07 14:04:56;;;;;;;12.02;2.33;;;;;;;;;;6300954;22;20532;-65
2022/11/07 14:07:47;;;;;;;10.27;2.33;;;;;;;;;;6302523;22;20023;-65
2022/11/07 14:10:49;;;;;;;7.03;2.10;;;;;;;;;;6302117;22;20098;-65
2022/11/07 14:13:28;;;;;;;9.43;2.08;;;;;;;;;;6146872;23;20066;-64
2022/11/07 14:15:56;;;;;;;9.73;2.10;;;;;;;;;;6282883;22;20030;-65
2022/11/07 14:18:36;;;;;;;15.23;2.15;;;;;;;;;;6302081;22;20360;-65
2022/11/07 14:21:04;;;;;;;18.45;2.83;;;;;;;;;;6300658;22;20027;-58
2022/11/07 14:23:43;;;;;;;21.25;3.22;;;;;;;;;;6301941;22;20022;-60
2022/11/07 14:26:25;;;;;;;19.33;3.03;;;;;;;;;;6301165;22;20026;-59
2022/11/07 14:29:02;;;;;;;17.87;3.23;;;;;;;;;;6276054;22;20094;-63
2022/11/07 14:31:31;;;;;;;20.92;3.50;;;;;;;;;;6302224;22;20090;-59
2022/11/07 14:34:16;;;;;;;16.38;3.03;;;;;;;;;;6301151;22;20090;-59
2022/11/07 14:36:51;;;;;;;28.27;3.70;;;;;;;;;;6301586;22;20019;-60
2022/11/07 14:39:26;;;;;;;21.30;3.47;;;;;;;;;;6301867;22;20033;-61
2022/11/07 14:41:55;;;;;;;17.48;3.20;;;;;;;;;;6302327;22;20058;-59
2022/11/07 14:44:29;;;;;;;18.08;3.40;;;;;;;;;;6301498;22;20025;-59
2022/11/07 14:47:31;;;;;;;23.02;3.45;;;;;;;;;;6302445;22;20023;-59
2022/11/07 14:50:05;;;;;;;22.20;3.25;;;;;;;;;;6300725;22;20415;-59
2022/11/07 14:52:32;;;;;;;;;;;;;;;;;;6302048;22;20026;-59
2022/11/07 14:55:02;;;;;;;29.55;4.43;;;;;;;;;;6302283;22;19921;-60
2022/11/07 14:57:37;;;;;;;31.80;4.45;;;;;;;;;;6302206;22;20019;-62
2022/11/07 15:00:05;;;;;;;26.52;3.50;;;;;;;;;;6299834;22;20026;-61
2022/11/07 15:02:45;;;;;;;22.38;3.30;;;;;;;;;;6269820;22;20034;-62
2022/11/07 15:05:23;;;;;;;22.02;3.47;;;;;;;;;;6268626;22;20031;-62
2022/11/07 15:07:58;;;;;;;18.90;2.97;;;;;;;;;;6269285;22;20094;-62
2022/11/07 15:10:27;;;;;;;21.67;3.10;;;;;;;;;;6270479;22;20106;-62
2022/11/07 15:13:02;;;;;;;14.88;2.90;;;;;;;;;;6269477;22;20019;-62
2022/11/07 15:15:33;;;;;;;22.73;3.22;;;;;;;;;;6271612;22;20020;-59
2022/11/07 15:18:07;;;;;;;;;;;;;;;;;;6268935;22;20047;-58
2022/11/07 15:20:36;;;;;;;14.27;2.63;;;;;;;;;;6269200;22;19919;-59
2022/11/07 15:23:05;;;;;;;23.73;2.92;;;;;;;;;;6271006;22;20055;-59
2022/11/07 15:25:40;;;;;;;12.90;2.25;;;;;;;;;;6270519;22;20045;-59
2022/11/07 15:28:16;;;;;;;21.80;3.30;;;;;;;;;;6269835;22;20020;-58